Latest Weather Observations for Palmerville

IDQ60801

Issued at 5:02 pm EST Thursday 18 December 2014 (issued every 30 minutes, with the page automatically refreshed every 10 minutes)

About weather observations | Map of weather stations | Latest weather observations for QLD | Other Formats
Station Details ID: 028004 Name: PALMERVILLE Lat: -16.00 Lon: 144.08 Height: 203.8 m
Data from the previous 72 hours. | See also: Recent months at Palmerville
Date/Time
EST
Temp
°C
App
Temp
°C
Dew
Point
Rel
Hum
%
Delta-T
°C
Wind Press
QNH
hPa
Press
MSL
hPa
Rain
since 9 am
mm
Dir
 
Spd
km/h
Gust
km/h
Spd
kts
Gust
kts
18/05:00pm 37.4 39.8 17.9 31 12.9 NW 2 13 1 7 1006.5 1005.0 0.0
18/04:30pm 36.9 38.2 17.0 31 12.9 NW 6 11 3 6 1006.4 1004.9 0.0
18/04:00pm 36.9 37.2 18.0 33 12.5 WSW 13 22 7 12 1006.8 1005.3 0.0
18/03:30pm 37.6 38.9 17.6 31 13.1 S 7 28 4 15 1007.2 1005.8 0.0
18/03:00pm 37.2 37.8 17.7 31 12.8 W 11 17 6 9 1007.9 1006.4 0.0
18/02:30pm 37.5 38.4 18.5 32 12.6 NE 11 17 6 9 1008.5 1007.0 0.0
18/02:00pm 36.3 38.1 18.4 35 11.8 S 6 15 3 8 1008.8 1007.3 0.0
18/01:30pm 36.3 38.2 19.7 37 11.1 SE 9 15 5 8 1009.4 1007.9 0.0
18/01:00pm 34.9 35.8 19.3 40 10.4 E 13 17 7 9 1009.8 1008.3 0.0
18/12:30pm 34.1 36.2 19.4 42 9.8 E 7 11 4 6 1010.4 1008.9 0.0
18/12:00pm 33.2 35.8 20.0 45 8.8 NNE 6 17 3 9 1010.8 1009.3 0.0
18/11:30am 32.8 34.8 20.0 47 8.5 NW 9 17 5 9 1011.3 1009.8 0.0
18/11:00am 31.4 33.6 19.7 49 7.8 N 7 13 4 7 1011.7 1010.3 0.0
18/10:30am 31.2 33.5 19.9 51 7.5 NW 7 15 4 8 1012.0 1010.6 0.0
18/10:00am 31.6 34.1 20.2 50 7.6 N 7 15 4 8 1012.1 1010.7 0.0
18/09:30am 30.4 32.0 20.0 53 6.9 NE 11 19 6 10 1012.0 1010.6 0.0
18/09:00am 29.5 30.8 20.1 57 6.2 NNE 13 20 7 11 1012.1 1010.7 0.0
18/08:30am 29.1 30.9 20.3 59 5.8 NNE 11 17 6 9 1012.1 1010.7 0.0
18/08:00am 27.6 30.3 20.7 66 4.6 NE 7 11 4 6 1012.3 1010.9 0.0
18/07:30am 27.0 29.4 20.8 69 4.1 ENE 9 15 5 8 1012.3 1010.9 0.0
18/07:00am 26.5 29.2 21.3 73 3.5 NNE 9 13 5 7 1012.2 1010.8 0.0
18/06:30am 26.0 29.0 21.2 75 3.2 NNE 7 11 4 6 1012.0 1010.6 0.0
18/06:00am 25.6 28.5 21.1 76 3.0 NNE 7 9 4 5 1011.7 1010.3 0.0
18/05:30am 25.6 28.0 20.8 75 3.2 NNE 9 13 5 7 1011.4 1009.9 0.0
18/05:00am 25.8 28.3 21.0 75 3.2 NNE 9 11 5 6 1011.1 1009.6 0.0
18/04:30am 25.7 28.1 20.9 75 3.2 NNE 9 13 5 7 1010.5 1009.0 0.0
18/04:00am 25.7 28.5 20.9 75 3.2 N 7 11 4 6 1010.2 1008.7 0.0
18/03:30am 25.7 27.8 20.9 75 3.2 N 11 15 6 8 1010.1 1008.6 0.0
18/03:00am 26.0 28.0 20.8 73 3.4 N 11 17 6 9 1010.0 1008.5 0.0
18/02:30am 26.2 28.5 20.7 71 3.6 N 9 13 5 7 1009.9 1008.4 0.0
18/02:00am 26.2 28.5 20.7 71 3.6 NNW 9 13 5 7 1010.0 1008.5 0.0
18/01:30am 26.5 29.4 21.0 72 3.7 N 7 9 4 5 1010.1 1008.6 0.0
18/01:00am 26.4 28.4 20.7 71 3.8 NNE 11 17 6 9 1009.9 1008.4 0.0
18/12:30am 26.6 28.6 20.7 70 3.9 NNE 11 17 6 9 1010.1 1008.6 0.0
18/12:00am 26.8 29.1 20.6 69 4.1 NE 9 13 5 7 1010.3 1008.8 0.0
 
Date/Time
EST
Temp
°C
App
Temp
°C
Dew
Point
Rel
Hum
%
Delta-T
°C
Wind Press
QNH
hPa
Press
MSL
hPa
Rain
since 9 am
mm
Dir
 
Spd
km/h
Gust
km/h
Spd
kts
Gust
kts
17/11:30pm 27.2 29.2 20.8 68 4.3 NE 11 17 6 9 1010.4 1008.9 0.0
17/11:00pm 27.7 29.0 20.8 66 4.6 NE 15 24 8 13 1010.4 1008.9 0.0
17/10:30pm 28.3 30.1 21.1 65 4.8 NNE 13 22 7 12 1010.5 1009.0 0.0
17/10:00pm 28.9 29.9 21.1 62 5.2 NNE 17 24 9 13 1010.3 1008.8 0.0
17/09:30pm 29.9 30.7 21.3 60 5.8 N 19 26 10 14 1010.0 1008.5 0.0
17/09:00pm 30.8 32.2 21.0 56 6.6 NNE 15 20 8 11 1009.3 1007.8 0.0
17/08:30pm 31.7 33.4 20.9 52 7.3 N 13 20 7 11 1008.7 1007.2 0.0
17/08:00pm 32.6 33.9 20.8 49 8.0 NNE 15 24 8 13 1007.2 1005.8 0.0
17/07:30pm 33.5 33.6 20.3 46 8.9 NNE 20 33 11 18 1006.3 1004.8 0.0
17/07:00pm 35.2 35.7 18.3 36 11.1 NNE 13 20 7 11 1006.0 1004.5 0.0
17/06:30pm 36.3 37.5 17.4 32 12.3 N 7 13 4 7 1005.6 1004.1 0.0
17/06:00pm 36.6 37.6 17.7 32 12.4 N 9 13 5 7 1005.1 1003.6 0.0
17/05:30pm 36.5 38.2 18.1 33 12.1 NW 6 11 3 6 1005.0 1003.5 0.0
17/05:00pm 36.6 38.1 17.7 32 12.4 NW 6 9 3 5 1005.1 1003.6 0.0
17/04:30pm 36.9 38.2 17.5 32 12.7 SSW 7 13 4 7 1005.3 1003.8 0.0
17/04:00pm 37.4 38.2 17.4 30 13.1 NW 9 15 5 8 1005.5 1004.0 0.0
17/03:30pm 37.2 38.2 17.7 31 12.8 W 9 17 5 9 1005.9 1004.4 0.0
17/03:00pm 36.5 37.3 18.1 33 12.1 NW 11 20 6 11 1006.3 1004.8 0.0
17/02:30pm 35.1 36.3 18.2 36 11.1 ENE 9 13 5 7 1006.9 1005.4 0.0
17/02:00pm 36.5 36.9 18.1 33 12.1 NE 13 19 7 10 1007.2 1005.8 0.0
17/01:30pm 36.9 39.0 20.2 37 11.3 WSW 9 13 5 7 1008.0 1006.5 0.0
17/01:00pm 34.4 36.2 19.6 41 9.9 N 9 17 5 9 1008.4 1006.9 0.0
17/12:30pm 33.9 35.2 19.2 42 9.7 NE 11 19 6 10 1008.8 1007.3 0.0
17/12:00pm 34.1 36.0 19.7 42 9.6 N 9 17 5 9 1009.2 1007.7 0.0
17/11:30am 33.0 35.5 20.2 47 8.6 NW 7 13 4 7 1009.8 1008.3 0.0
17/11:00am 33.2 35.2 20.0 45 8.8 NNW 9 17 5 9 1010.1 1008.6 0.0
17/10:30am 31.4 33.4 20.0 50 7.6 NNW 9 15 5 8 1010.5 1009.0 0.0
17/10:00am 32.4 34.3 20.6 49 7.9 NNW 11 17 6 9 1010.6 1009.1 0.0
17/09:30am 31.4 33.9 21.0 54 7.0 NNE 9 15 5 8 1010.7 1009.2 0.0
17/09:00am 30.3 32.5 21.1 58 6.2 NNE 11 17 6 9 1010.9 1009.4 0.0
17/08:30am 29.5 32.4 21.7 63 5.3 ENE 9 15 5 8 1011.0 1009.5 0.0
17/08:00am 28.6 31.9 21.4 65 4.8 E 6 13 3 7 1011.0 1009.5 0.0
17/07:30am 27.3 30.3 21.3 69 4.0 E 7 11 4 6 1010.8 1009.3 0.0
17/07:00am 26.6 30.1 21.8 75 3.2 NNE 6 7 3 4 1010.3 1008.8 0.0
17/06:30am 25.7 30.6 22.4 82 2.2 CALM 0 0 0 0 1010.2 1008.7 0.0
17/06:00am 25.3 30.0 22.0 82 2.2 CALM 0 0 0 0 1009.7 1008.2 0.0
17/05:30am 25.6 30.4 22.1 81 2.4 CALM 0 6 0 3 1009.3 1007.8 0.0
17/05:00am 25.6 29.5 21.9 80 2.5 ENE 4 7 2 4 1008.9 1007.4 0.0
17/04:30am 25.8 29.1 21.9 79 2.6 NNE 7 11 4 6 1008.6 1007.1 0.0
17/04:00am 26.0 29.2 21.7 77 2.9 NNE 7 11 4 6 1008.7 1007.2 0.0
17/03:30am 26.1 29.0 21.7 77 3.0 NNE 9 11 5 6 1008.6 1007.1 0.0
17/03:00am 25.9 29.1 21.6 77 2.9 NE 7 11 4 6 1008.4 1006.9 0.0
17/02:30am 26.3 29.4 21.5 75 3.2 NNE 7 19 4 10 1008.3 1006.8 0.0
17/02:00am 26.2 29.2 21.2 74 3.3 NE 7 13 4 7 1008.3 1006.8 0.0
17/01:30am 26.6 29.1 21.1 72 3.7 NNE 9 17 5 9 1008.6 1007.1 0.0
17/01:00am 26.9 28.7 21.2 71 3.8 NNE 13 19 7 10 1008.6 1007.1 0.0
17/12:30am 27.0 29.3 21.3 71 3.8 NNE 11 15 6 8 1008.9 1007.4 0.0
17/12:00am 27.3 29.6 21.3 69 4.0 NNE 11 17 6 9 1009.5 1008.0 0.0
 
Date/Time
EST
Temp
°C
App
Temp
°C
Dew
Point
Rel
Hum
%
Delta-T
°C
Wind Press
QNH
hPa
Press
MSL
hPa
Rain
since 9 am
mm
Dir
 
Spd
km/h
Gust
km/h
Spd
kts
Gust
kts
16/11:30pm 27.5 29.5 21.5 70 4.0 NE 13 20 7 11 1009.6 1008.1 0.0
16/11:00pm 27.8 29.7 21.3 67 4.4 NE 13 24 7 13 1009.7 1008.2 0.0
16/10:30pm 28.2 29.3 21.2 65 4.7 NE 17 26 9 14 1009.7 1008.2 0.0
16/10:00pm 28.5 29.7 21.5 66 4.7 NNE 17 24 9 13 1009.7 1008.2 0.0
16/09:30pm 29.0 30.0 21.7 64 4.9 NNE 19 28 10 15 1009.4 1007.9 0.0
16/09:00pm 29.5 30.3 21.7 63 5.3 NNE 20 28 11 15 1009.2 1007.7 0.0
16/08:30pm 30.3 31.3 21.7 60 5.8 NNE 19 30 10 16 1008.7 1007.2 0.0
16/08:00pm 31.1 32.0 21.9 58 6.3 NNE 20 30 11 16 1008.1 1006.6 0.0
16/07:30pm 32.0 32.4 21.8 54 7.0 NNE 22 32 12 17 1007.3 1005.9 0.0
16/07:00pm 33.0 34.6 21.5 50 7.9 NE 15 22 8 12 1006.8 1005.3 0.0
16/06:30pm 34.4 34.7 20.7 44 9.3 NNE 20 33 11 18 1006.0 1004.5 0.0
16/06:00pm 37.0 37.7 17.1 31 13.0 N 9 13 5 7 1005.6 1004.1 0.0
16/05:30pm 37.6 38.7 17.1 30 13.3 NW 7 13 4 7 1005.6 1004.1 0.0
16/05:00pm 38.0 39.4 17.4 29 13.5 NNE 6 11 3 6 1005.4 1003.9 0.0
16/04:30pm 37.5 38.4 17.5 30 13.1 SW 9 15 5 8 1005.4 1003.9 0.0
16/04:00pm 38.3 39.7 17.7 30 13.6 WSW 7 15 4 8 1005.6 1004.1 0.0
16/03:30pm 37.3 38.5 17.3 30 13.0 NNE 7 17 4 9 1005.9 1004.4 0.0
16/03:00pm 36.3 37.4 18.8 35 11.6 NW 11 17 6 9 1006.4 1004.9 0.0
16/02:30pm 36.3 37.6 18.4 35 11.8 NNW 9 15 5 8 1006.9 1005.4 0.0
16/02:00pm 36.6 37.8 19.1 35 11.7 NNE 11 15 6 8 1007.3 1005.9 0.0
16/01:30pm 35.5 37.2 18.6 37 11.2 W 7 13 4 7 1007.9 1006.4 0.0
16/01:00pm 36.1 36.7 17.7 33 12.0 NW 11 19 6 10 1008.4 1006.9 0.0
16/12:30pm 35.6 38.1 21.1 43 9.9 NW 9 15 5 8 1009.0 1007.5 0.0
16/12:00pm 34.8 36.6 20.4 43 9.7 NW 11 19 6 10 1009.7 1008.2 0.0
16/11:30am 33.9 36.1 20.3 45 9.1 NNE 9 15 5 8 1010.1 1008.6 0.0
16/11:00am 32.3 34.5 20.5 49 7.9 NW 9 17 5 9 1010.5 1009.0 0.0
16/10:30am 31.5 33.5 20.8 53 7.2 NW 11 17 6 9 1010.9 1009.4 0.0
16/10:00am 32.1 33.8 21.0 52 7.5 N 13 24 7 13 1011.2 1009.7 0.0
16/09:30am 31.6 33.5 22.0 56 6.6 NNE 15 20 8 11 1011.5 1010.1 0.0
16/09:00am 31.0 32.2 21.5 57 6.4 NE 17 24 9 13 1011.7 1010.3 0.0
16/08:30am 30.3 33.0 22.2 62 5.5 NE 11 19 6 10 1011.8 1010.4 0.0
16/08:00am 28.6 30.9 22.1 68 4.4 NE 13 26 7 14 1011.9 1010.5 0.0
16/07:30am 27.9 30.9 22.6 73 3.6 NE 11 15 6 8 1011.6 1010.2 0.0
16/07:00am 26.8 30.6 22.4 77 3.0 ENE 6 13 3 7 1011.3 1009.8 0.0
16/06:30am 26.0 29.7 22.5 81 2.4 ENE 7 11 4 6 1011.0 1009.5 0.0
16/06:00am 25.6 28.8 22.3 82 2.2 ENE 9 13 5 7 1010.4 1008.9 0.0
16/05:30am 25.5 28.8 22.6 84 2.0 NE 9 13 5 7 1009.8 1008.3 0.0
16/05:00am 25.5 28.7 22.4 83 2.1 NE 9 11 5 6 1009.3 1007.8 0.0
16/04:30am 25.8 28.8 22.7 83 2.1 NE 11 15 6 8 1008.8 1007.3 0.0
16/04:00am 25.6 28.9 22.5 83 2.1 NE 9 13 5 7 1008.6 1007.1 0.0
16/03:30am 25.8 29.5 22.5 82 2.2 ENE 7 9 4 5 1008.5 1007.0 0.0
16/03:00am 26.1 29.4 22.6 81 2.4 NE 9 13 5 7 1008.4 1006.9 0.0
16/02:30am 26.4 29.8 22.7 80 2.5 NE 9 15 5 8 1008.4 1006.9 0.0
16/02:00am 26.6 29.6 22.7 79 2.7 NNE 11 15 6 8 1008.4 1006.9 0.0
16/01:30am 26.8 30.1 22.6 78 2.9 NE 9 13 5 7 1008.6 1007.1 0.0
16/01:00am 27.0 30.2 22.4 76 3.1 NNE 9 15 5 8 1009.1 1007.6 0.0
16/12:30am 27.3 30.5 22.3 74 3.4 NNE 9 13 5 7 1009.5 1008.0 0.0
16/12:00am 27.6 30.4 22.3 73 3.6 NNE 11 17 6 9 1009.8 1008.3 0.0
 
Date/Time
EST
Temp
°C
App
Temp
°C
Dew
Point
Rel
Hum
%
Delta-T
°C
Wind Press
QNH
hPa
Press
MSL
hPa
Rain
since 9 am
mm
Dir
 
Spd
km/h
Gust
km/h
Spd
kts
Gust
kts
15/11:30pm 28.0 29.6 22.2 70 3.9 NNE 17 26 9 14 1010.2 1008.7 0.0
15/11:00pm 28.2 30.7 22.4 71 4.0 NNE 13 20 7 11 1010.6 1009.1 0.0
15/10:30pm 28.4 30.6 22.6 71 4.0 NE 15 20 8 11 1010.5 1009.0 0.0
15/10:00pm 29.0 31.6 22.7 69 4.3 NE 13 19 7 10 1010.6 1009.1 0.0
15/09:30pm 29.6 31.4 22.6 66 4.8 NNE 17 24 9 13 1010.3 1008.8 0.0
15/09:00pm 30.1 31.4 22.3 63 5.3 NNE 19 28 10 15 1010.0 1008.5 0.0
15/08:30pm 30.5 31.7 22.1 61 5.7 NNE 19 30 10 16 1009.6 1008.1 0.0
15/08:00pm 31.3 32.7 21.8 57 6.5 N 17 30 9 16 1009.5 1008.0 0.0
15/07:30pm 32.1 33.2 21.9 54 7.0 NNE 19 32 10 17 1008.4 1006.9 0.0
15/07:00pm 33.1 33.7 21.3 50 8.0 NNE 20 41 11 22 1007.3 1005.9 0.0
15/06:30pm 36.3 36.6 14.9 28 13.5 NNW 7 13 4 7 1006.4 1004.9 0.0
15/06:00pm 37.2 37.3 14.5 26 14.3 NW 7 11 4 6 1006.0 1004.5 0.0
15/05:30pm 37.0 35.9 14.3 26 14.2 NW 13 20 7 11 1005.8 1004.3 0.0

Other Formats:

Comma delimited format used in spreadsheet applications
http://www.bom.gov.au/fwo/IDQ60801/IDQ60801.94276.axf

JavaScript Object Notation format (JSON) in row-major order
http://www.bom.gov.au/fwo/IDQ60801/IDQ60801.94276.json